Gillette, WY

2:16 PM MDT on June 03, 2015 (GMT -0600)
Gillette-Campbell County | | Change Station
CLOSE
Current Station
Airport
Location: Gillette,
Elevation: 4364 ft
Nearby Weather Stations
Active Advisory: Tornado Watch Active Notice: Local Storm Report

Elev 4364 ft 44.34 °N, 105.54 °W | Updated 23 minutes ago

Overcast
Overcast
69 °F
Feels Like 69 °F
N
5
Wind Variable Wind from NNE

Today
High -- | Low -- °F
--% Chance of Precip.
Yesterday
High -- | Low -- °F
Precip. -- in
5:19 AM 8:42 PM
Full, 98% visible
Pressure 29.89 in
Visibility 10.0 miles
Clouds Mostly Cloudy 4600 ft
Mostly Cloudy 6000 ft
Overcast 7000 ft
Dew Point 53 °F
Humidity 57%
Rainfall 0.00 in
Snow Depth Not available.
UV 3 out of 12
Pollen 6.00 out of 12
Air Quality Not available.
Flu Activity Sporadic
METAR KGCC 031953Z AUTO 03004KT 10SM BKN046 BKN060 OVC070 21/12 A2998 RMK AO2 SLP120 T02060117

More Conditions Fewer Conditions

Pressure 29.89 in
Visibility 10.0 miles
Clouds Mostly Cloudy 4600 ft
Mostly Cloudy 6000 ft
Overcast 7000 ft
Dew Point 53 °F
Humidity 57%
Rainfall 0.00 in
Snow Depth Not available.
UV 3 out of 12
Pollen 6.00 out of 12
Air Quality Not available.
Flu Activity Sporadic
METAR KGCC 031953Z AUTO 03004KT 10SM BKN046 BKN060 OVC070 21/12 A2998 RMK AO2 SLP120 T02060117

More Conditions Fewer Conditions

10-Day Weather Forecast

×

Almanac

Astronomy

Jun. 03, 2015 Rise Set
Actual Time
Civil Twilight
Nautical Twilight
Astronomical Twilight
Moon
Length of Visible Light
Length of Day
Tomorrow will be .
, % of the Moon is Illuminated

Today's Extremes

State Highs State Lows

Community

WunderPhotos

Upload Photos

1,826,277 photos uploaded!

WunderBlogs® & News

Nearby

Air Quality

  Air Quality AQ Index Pollutant
Not available.

Snow Depth

Station Depth Elevation

Earthquake Activity

City Distance Mag. Time & Date
Minimum magnitude displayed is 2.5.

Coastal Water Temperatures

Place Temperature

Stations

Nearby Weather Stations

Station Location Temp. Windchill Dew Point Humidity Wind Precip. Elev Updated Type
                   
Tornado Watch
Statement as of 2:13 PM MDT on June 03, 2015


The National Weather Service has issued Tornado Watch 251 in
effect until 9 PM MDT this evening for the following areas

In Wyoming this watch includes 2 counties

In northeast Wyoming

Campbell Weston

This includes the cities of... Gillette... Newcastle and Wright.